Time;durP1;ratioP1;P1;durP2;ratioP2;P2;SDS_P1;SDS_P2;PMS_P1;PMS_P2;Temp;Humidity;BMP_temperature;BMP_pressure;BME280_temperature;BME280_humidity;BME280_pressure;Samples;Min_cycle;Max_cycle;Signal;HPM_P1;HPM_P2
2021/10/18 00:02:08;;;;;;;10.93;6.93;;;10.60;99.90;;;;;;5019880;28;20173;-81
2021/10/18 00:04:34;;;;;;;7.43;6.83;;;10.60;99.90;;;;;;5020197;28;20489;-81
2021/10/18 00:07:00;;;;;;;9.93;8.10;;;10.60;99.90;;;;;;5022283;28;20452;-79
2021/10/18 00:09:26;;;;;;;7.97;7.20;;;10.60;99.90;;;;;;5022956;28;20204;-79
2021/10/18 00:11:52;;;;;;;11.73;6.77;;;10.60;99.90;;;;;;5023861;28;20173;-79
2021/10/18 00:14:18;;;;;;;9.80;7.33;;;10.60;99.90;;;;;;5023295;28;20161;-79
2021/10/18 00:16:44;;;;;;;8.10;6.87;;;10.60;99.90;;;;;;5023971;28;20400;-81
2021/10/18 00:19:10;;;;;;;11.20;6.80;;;10.50;99.90;;;;;;5022609;28;20722;-80
2021/10/18 00:21:36;;;;;;;11.87;7.37;;;10.40;99.90;;;;;;5023748;28;20535;-82
2021/10/18 00:24:02;;;;;;;10.20;7.13;;;10.50;99.90;;;;;;5022443;28;20439;-81
2021/10/18 00:26:28;;;;;;;7.97;6.90;;;10.50;99.90;;;;;;5023650;28;20201;-82
2021/10/18 00:28:54;;;;;;;9.73;7.63;;;10.50;99.90;;;;;;5021285;28;20427;-81
2021/10/18 00:31:19;;;;;;;8.70;6.90;;;10.50;99.90;;;;;;5019521;28;20161;-82
2021/10/18 00:33:45;;;;;;;7.57;6.83;;;10.40;99.90;;;;;;5019230;28;20229;-81
2021/10/18 00:36:11;;;;;;;7.93;6.30;;;10.40;99.90;;;;;;5019213;28;20173;-82
2021/10/18 00:38:37;;;;;;;7.63;6.93;;;10.30;99.90;;;;;;5019519;28;20423;-84
2021/10/18 00:41:03;;;;;;;10.97;6.67;;;10.40;99.90;;;;;;5019585;28;20846;-80
2021/10/18 00:43:29;;;;;;;8.57;7.77;;;10.40;99.90;;;;;;5019493;28;20516;-82
2021/10/18 00:45:55;;;;;;;7.40;6.70;;;10.40;99.90;;;;;;5018896;28;20189;-81
2021/10/18 00:48:21;;;;;;;7.63;6.77;;;10.30;99.90;;;;;;5018441;28;20193;-81
2021/10/18 00:50:47;;;;;;;12.97;7.07;;;10.40;99.90;;;;;;5018741;28;20579;-82
2021/10/18 00:53:14;;;;;;;8.50;5.50;;;10.30;99.90;;;;;;5018738;28;20196;-82
2021/10/18 00:55:40;;;;;;;9.03;6.87;;;10.30;99.90;;;;;;5018827;28;20397;-82
2021/10/18 00:58:06;;;;;;;7.20;6.40;;;10.30;99.90;;;;;;5017110;28;20399;-81
2021/10/18 01:00:31;;;;;;;7.43;6.73;;;10.10;99.90;;;;;;5018407;28;20176;-82
2021/10/18 01:03:00;;;;;;;6.90;6.20;;;10.10;99.90;;;;;;5017749;28;20468;-81
2021/10/18 01:05:25;;;;;;;9.93;6.70;;;10.00;99.90;;;;;;5018632;28;20165;-82
2021/10/18 01:08:11;;;;;;;8.90;7.50;;;10.00;99.90;;;;;;5019539;28;20749;-82
2021/10/18 01:10:37;;;;;;;7.50;6.80;;;9.90;99.90;;;;;;5016747;28;20193;-82
2021/10/18 01:13:04;;;;;;;7.77;5.67;;;9.90;99.90;;;;;;5018253;28;20524;-82
2021/10/18 01:15:31;;;;;;;7.60;6.27;;;9.90;99.90;;;;;;5017433;28;20400;-81
2021/10/18 01:17:57;;;;;;;10.73;7.90;;;9.90;99.90;;;;;;5016575;28;20404;-83
2021/10/18 01:20:31;;;;;;;8.20;5.90;;;9.90;99.90;;;;;;5000601;28;20412;-82
2021/10/18 01:22:58;;;;;;;11.00;7.00;;;9.90;99.90;;;;;;5016260;28;20161;-81
2021/10/18 01:25:25;;;;;;;7.20;6.57;;;9.90;99.90;;;;;;5017436;28;20423;-81
2021/10/18 01:27:51;;;;;;;8.63;5.87;;;9.90;99.90;;;;;;5017308;28;20413;-82
2021/10/18 01:30:17;;;;;;;7.60;6.63;;;9.90;99.90;;;;;;5017967;28;20404;-82
2021/10/18 01:32:43;;;;;;;8.10;7.27;;;9.80;99.90;;;;;;5023891;28;20264;-82
2021/10/18 01:35:10;;;;;;;9.60;6.77;;;9.70;99.90;;;;;;4976749;28;20402;-81
2021/10/18 01:37:37;;;;;;;7.90;6.50;;;9.70;99.90;;;;;;4976801;28;20855;-82
2021/10/18 01:40:08;;;;;;;7.87;6.57;;;9.70;99.90;;;;;;4976768;28;20469;-81
2021/10/18 01:42:34;;;;;;;6.20;5.50;;;9.60;99.90;;;;;;4977336;28;20414;-82
2021/10/18 01:44:59;;;;;;;7.30;6.07;;;9.60;99.90;;;;;;4977326;28;20413;-81
2021/10/18 01:47:27;;;;;;;9.77;6.47;;;9.50;99.90;;;;;;4976996;28;20802;-81
2021/10/18 01:49:56;;;;;;;8.47;6.43;;;9.60;99.90;;;;;;4976577;28;20525;-81
2021/10/18 01:52:23;;;;;;;6.13;5.50;;;9.60;99.90;;;;;;4976700;28;20398;-82
2021/10/18 01:54:49;;;;;;;6.80;6.10;;;9.50;99.90;;;;;;4975812;28;20732;-81
2021/10/18 01:57:15;;;;;;;6.77;5.90;;;9.50;99.90;;;;;;4960682;28;20461;-81
2021/10/18 01:59:40;;;;;;;9.10;5.37;;;9.50;99.90;;;;;;4976395;28;20222;-81
2021/10/18 02:02:06;;;;;;;8.07;7.07;;;9.50;99.90;;;;;;4976711;28;20167;-81
2021/10/18 02:04:32;;;;;;;13.13;7.00;;;9.40;99.90;;;;;;4976050;28;20238;-81
2021/10/18 02:06:58;;;;;;;11.40;7.40;;;9.40;99.90;;;;;;5011093;28;20275;-81
2021/10/18 02:09:24;;;;;;;7.07;6.30;;;9.30;99.90;;;;;;5017680;28;20170;-81
2021/10/18 02:11:50;;;;;;;14.20;6.63;;;9.30;99.90;;;;;;5017489;28;20172;-82
2021/10/18 02:14:17;;;;;;;9.27;6.50;;;9.30;99.90;;;;;;5017782;28;20450;-82
2021/10/18 02:16:43;;;;;;;11.80;6.40;;;9.30;99.90;;;;;;5017282;28;20408;-82
2021/10/18 02:19:09;;;;;;;6.77;6.07;;;9.30;99.90;;;;;;5017611;28;20785;-82
2021/10/18 02:21:35;;;;;;;8.80;6.60;;;9.30;99.90;;;;;;5016556;28;20475;-82
2021/10/18 02:24:01;;;;;;;9.40;6.73;;;9.30;99.90;;;;;;5017645;28;20406;-81
2021/10/18 02:26:26;;;;;;;7.50;6.30;;;9.20;99.90;;;;;;5017757;28;20511;-81
2021/10/18 02:28:52;;;;;;;8.27;5.83;;;9.20;99.90;;;;;;5016105;28;20188;-82
2021/10/18 02:31:18;;;;;;;9.20;5.90;;;9.20;99.90;;;;;;5017668;28;20210;-81
2021/10/18 02:33:44;;;;;;;10.63;7.03;;;9.10;99.90;;;;;;5016783;28;20233;-80
2021/10/18 02:36:10;;;;;;;8.03;6.47;;;9.10;99.90;;;;;;5016489;28;20843;-81
2021/10/18 02:38:38;;;;;;;6.63;6.03;;;9.00;99.90;;;;;;5017454;28;20256;-81
2021/10/18 02:41:04;;;;;;;8.00;6.40;;;9.00;99.90;;;;;;5017739;28;20389;-81
2021/10/18 02:43:29;;;;;;;6.33;5.73;;;9.00;99.90;;;;;;5017537;28;20578;-81
2021/10/18 02:45:55;;;;;;;11.00;6.30;;;9.00;99.90;;;;;;5016954;28;20327;-81
2021/10/18 02:48:21;;;;;;;9.87;6.90;;;9.10;99.90;;;;;;5017324;28;20272;-80
2021/10/18 02:50:47;;;;;;;8.53;7.43;;;9.10;99.90;;;;;;4999216;28;20193;-82
2021/10/18 02:53:13;;;;;;;6.80;6.20;;;9.10;99.90;;;;;;5017156;28;20396;-81
2021/10/18 02:55:39;;;;;;;8.70;7.60;;;9.10;99.90;;;;;;5017067;28;20253;-82
2021/10/18 02:58:05;;;;;;;6.37;5.63;;;9.10;99.90;;;;;;5015360;28;20265;-82
2021/10/18 03:00:31;;;;;;;7.87;6.30;;;9.10;99.90;;;;;;5017450;28;20165;-82
2021/10/18 03:02:57;;;;;;;9.13;6.70;;;9.10;99.90;;;;;;5025136;28;20753;-79
2021/10/18 03:05:23;;;;;;;12.43;6.93;;;9.00;99.90;;;;;;5023371;28;20656;-81
2021/10/18 03:07:52;;;;;;;10.07;6.30;;;9.00;99.90;;;;;;5020375;28;20405;-81
2021/10/18 03:10:19;;;;;;;9.10;7.13;;;9.00;99.90;;;;;;5020024;28;20404;-82
2021/10/18 03:12:45;;;;;;;8.00;6.63;;;8.90;99.90;;;;;;5020489;28;20412;-82
2021/10/18 03:15:11;;;;;;;6.80;6.07;;;8.90;99.90;;;;;;5020780;28;20495;-81
2021/10/18 03:17:37;;;;;;;11.33;5.83;;;8.80;99.90;;;;;;5021143;28;20157;-82
2021/10/18 03:20:04;;;;;;;9.73;6.00;;;8.80;99.90;;;;;;5021047;28;20568;-81
2021/10/18 03:22:30;;;;;;;7.00;6.03;;;8.90;99.90;;;;;;5020133;28;20424;-82
2021/10/18 03:24:56;;;;;;;7.70;6.60;;;8.80;99.90;;;;;;5020872;28;20462;-81
2021/10/18 03:27:21;;;;;;;6.83;5.73;;;8.70;99.90;;;;;;5020953;28;20193;-81
2021/10/18 03:29:48;;;;;;;17.87;6.80;;;8.60;99.90;;;;;;5019082;28;20168;-81
2021/10/18 03:32:14;;;;;;;16.13;7.07;;;8.60;99.90;;;;;;5020013;28;20297;-81
2021/10/18 03:34:40;;;;;;;7.60;6.90;;;8.50;99.90;;;;;;5021759;28;20507;-82
2021/10/18 03:37:05;;;;;;;18.05;8.30;;;8.50;99.90;;;;;;5019920;28;20407;-82
2021/10/18 03:39:32;;;;;;;15.00;7.27;;;8.40;99.90;;;;;;5021381;28;20228;-82
2021/10/18 03:41:58;;;;;;;38.13;8.77;;;8.40;99.90;;;;;;5019874;28;20574;-80
2021/10/18 03:44:24;;;;;;;17.17;6.10;;;8.20;99.90;;;;;;5021522;28;20454;-80
2021/10/18 03:46:50;;;;;;;15.33;6.13;;;8.10;99.90;;;;;;5017100;28;20452;-82
2021/10/18 03:49:16;;;;;;;11.00;6.57;;;8.20;99.90;;;;;;5019246;28;20276;-81
2021/10/18 03:51:42;;;;;;;12.73;7.13;;;8.30;99.90;;;;;;5019782;28;20166;-81
2021/10/18 03:54:08;;;;;;;14.30;6.20;;;8.30;99.90;;;;;;5018950;28;20407;-82
2021/10/18 03:56:34;;;;;;;10.70;6.70;;;8.30;99.90;;;;;;5019930;28;20170;-80
2021/10/18 03:59:00;;;;;;;13.43;7.93;;;8.30;99.90;;;;;;5020324;28;20161;-82
2021/10/18 04:01:25;;;;;;;9.60;7.43;;;8.40;99.90;;;;;;5020412;28;20208;-81
2021/10/18 04:03:51;;;;;;;7.90;6.30;;;8.30;99.90;;;;;;5019749;28;20521;-81
2021/10/18 04:06:18;;;;;;;28.10;7.57;;;8.30;99.90;;;;;;5019809;28;20193;-82
2021/10/18 04:08:48;;;;;;;31.97;7.83;;;8.00;99.90;;;;;;5019822;28;20157;-81
2021/10/18 04:11:14;;;;;;;35.30;7.83;;;7.70;99.90;;;;;;5018231;28;20615;-81
2021/10/18 04:13:40;;;;;;;16.90;7.40;;;7.50;99.90;;;;;;5019678;28;20455;-81
2021/10/18 04:16:06;;;;;;;17.93;6.90;;;7.50;99.90;;;;;;5019516;28;20196;-81
2021/10/18 04:18:32;;;;;;;19.77;7.90;;;7.50;99.90;;;;;;5019580;28;20734;-80
2021/10/18 04:20:59;;;;;;;16.93;7.17;;;7.50;99.90;;;;;;5020175;28;20447;-81
2021/10/18 04:23:26;;;;;;;14.30;5.97;;;7.50;99.90;;;;;;5017654;28;20487;-81
2021/10/18 04:25:52;;;;;;;22.53;6.77;;;7.70;99.90;;;;;;5018558;28;20518;-81
2021/10/18 04:28:18;;;;;;;15.43;6.43;;;7.80;99.90;;;;;;5019056;28;20398;-81
2021/10/18 04:30:44;;;;;;;11.80;6.30;;;8.00;99.90;;;;;;5019047;28;20399;-81
2021/10/18 04:33:10;;;;;;;11.73;7.40;;;7.90;99.90;;;;;;5019010;28;20610;-81
2021/10/18 04:35:36;;;;;;;10.27;6.27;;;8.10;99.90;;;;;;5018624;28;20424;-81
2021/10/18 04:38:02;;;;;;;17.50;7.13;;;8.10;99.90;;;;;;5018670;28;20400;-81
2021/10/18 04:40:29;;;;;;;19.37;6.60;;;8.10;99.90;;;;;;5018605;28;20212;-81
2021/10/18 04:42:55;;;;;;;18.23;6.87;;;8.20;99.90;;;;;;5017371;28;20166;-81
2021/10/18 04:45:22;;;;;;;8.17;5.63;;;8.20;99.90;;;;;;5019082;28;20404;-81
2021/10/18 04:47:50;;;;;;;11.40;6.63;;;7.90;99.90;;;;;;5017789;28;20197;-82
2021/10/18 04:50:18;;;;;;;7.77;6.73;;;8.10;99.90;;;;;;5021435;28;20399;-82
2021/10/18 04:52:44;;;;;;;15.03;6.97;;;8.20;99.90;;;;;;5019337;28;20386;-81
2021/10/18 04:55:10;;;;;;;7.40;5.80;;;8.20;99.90;;;;;;5018574;28;20436;-81
2021/10/18 04:57:50;;;;;;;13.33;6.97;;;8.20;99.90;;;;;;5016968;28;20423;-81
2021/10/18 05:00:16;;;;;;;8.27;6.37;;;8.20;99.90;;;;;;5017530;28;20400;-82
2021/10/18 05:02:42;;;;;;;9.20;8.27;;;8.20;99.90;;;;;;5019216;28;20409;-82
2021/10/18 05:05:08;;;;;;;8.80;6.47;;;8.30;99.90;;;;;;5018287;28;20437;-82
2021/10/18 05:07:34;;;;;;;6.97;6.13;;;8.30;99.90;;;;;;5019031;28;20193;-83
2021/10/18 05:09:59;;;;;;;10.57;7.60;;;8.30;99.90;;;;;;5019325;28;20419;-81
2021/10/18 05:12:25;;;;;;;10.93;7.33;;;8.30;99.90;;;;;;5018263;28;20503;-80
2021/10/18 05:14:51;;;;;;;7.97;6.37;;;8.40;99.90;;;;;;5018681;28;20177;-82
2021/10/18 05:17:17;;;;;;;8.17;6.33;;;8.30;99.90;;;;;;5017526;28;20229;-82
2021/10/18 05:19:42;;;;;;;5.80;5.27;;;8.40;99.90;;;;;;5018551;28;20173;-82
2021/10/18 05:22:08;;;;;;;6.07;5.47;;;8.30;99.90;;;;;;5018426;28;20201;-82
2021/10/18 05:24:34;;;;;;;8.97;6.87;;;8.40;99.90;;;;;;5018014;28;20169;-82
2021/10/18 05:27:00;;;;;;;7.73;6.23;;;8.50;99.90;;;;;;5017984;28;20228;-81
2021/10/18 05:29:28;;;;;;;10.73;6.17;;;8.20;99.90;;;;;;5016722;28;20188;-82
2021/10/18 05:31:54;;;;;;;6.37;5.23;;;8.20;99.90;;;;;;5018088;28;20227;-82
2021/10/18 05:34:20;;;;;;;7.40;6.67;;;8.30;99.90;;;;;;5016364;28;20436;-81
2021/10/18 05:36:46;;;;;;;17.53;7.03;;;8.30;99.90;;;;;;5017486;28;20578;-82
2021/10/18 05:39:11;;;;;;;8.13;6.37;;;8.40;99.90;;;;;;5017014;28;20189;-81
2021/10/18 05:41:37;;;;;;;11.70;6.50;;;8.40;99.90;;;;;;5017160;28;20268;-81
2021/10/18 05:44:04;;;;;;;7.53;6.37;;;8.30;99.90;;;;;;4996784;28;20170;-82
2021/10/18 05:46:31;;;;;;;5.77;5.37;;;8.40;99.90;;;;;;5021214;28;20463;-82
2021/10/18 05:48:57;;;;;;;8.97;8.10;;;8.50;99.90;;;;;;5008345;28;20436;-81
2021/10/18 05:51:25;;;;;;;7.77;5.83;;;8.50;99.90;;;;;;5016291;28;20420;-78
2021/10/18 05:53:51;;;;;;;8.43;6.10;;;8.50;99.90;;;;;;5020707;28;20481;-79
2021/10/18 05:56:17;;;;;;;7.90;5.60;;;8.50;99.90;;;;;;5021317;28;21024;-79
2021/10/18 05:58:42;;;;;;;7.30;6.60;;;8.50;99.90;;;;;;5022907;28;20301;-79
2021/10/18 06:01:08;;;;;;;7.70;5.53;;;8.50;99.90;;;;;;5022448;28;20292;-77
2021/10/18 06:03:34;;;;;;;6.40;5.80;;;8.50;99.90;;;;;;5015169;28;20178;-79
2021/10/18 06:06:02;;;;;;;6.63;5.90;;;8.50;99.90;;;;;;5017598;28;20207;-78
2021/10/18 06:08:28;;;;;;;5.80;5.17;;;8.50;99.90;;;;;;5020922;28;20166;-79
2021/10/18 06:10:54;;;;;;;10.30;7.20;;;8.40;99.90;;;;;;5022588;28;20465;-80
2021/10/18 06:13:22;;;;;;;8.93;6.40;;;8.50;99.90;;;;;;5025505;28;20248;-80
2021/10/18 06:15:48;;;;;;;8.67;7.07;;;8.60;99.90;;;;;;5026723;28;20443;-80
2021/10/18 06:18:17;;;;;;;7.00;5.97;;;8.60;99.90;;;;;;5015783;28;20185;-82
2021/10/18 06:20:46;;;;;;;8.70;6.73;;;8.60;99.90;;;;;;5016002;28;20204;-82
2021/10/18 06:23:13;;;;;;;6.00;5.40;;;8.60;99.90;;;;;;5015000;28;20448;-82
2021/10/18 06:25:40;;;;;;;7.67;6.97;;;8.50;99.90;;;;;;5018555;28;20441;-81
2021/10/18 06:28:07;;;;;;;6.50;5.70;;;8.40;99.90;;;;;;5012083;28;20924;-81
2021/10/18 06:30:34;;;;;;;7.73;6.70;;;8.00;99.90;;;;;;5010533;28;20448;-82
2021/10/18 06:33:00;;;;;;;9.80;7.13;;;8.00;99.90;;;;;;5001380;28;20479;-83
2021/10/18 06:35:26;;;;;;;8.00;6.83;;;8.10;99.90;;;;;;5011172;28;20489;-81
2021/10/18 06:37:52;;;;;;;8.97;8.07;;;8.30;99.90;;;;;;5013213;28;20185;-81
2021/10/18 06:40:18;;;;;;;16.90;7.80;;;8.40;99.90;;;;;;5014375;28;20824;-82
2021/10/18 06:42:44;;;;;;;8.73;7.83;;;8.40;99.90;;;;;;5021101;28;20540;-81
2021/10/18 06:45:10;;;;;;;10.07;7.93;;;8.60;99.90;;;;;;5018765;28;20443;-82
2021/10/18 06:47:38;;;;;;;10.10;7.97;;;8.60;99.90;;;;;;5011117;28;20697;-81
2021/10/18 06:50:05;;;;;;;8.13;7.30;;;8.30;99.90;;;;;;5017266;28;20440;-79
2021/10/18 06:52:34;;;;;;;7.07;6.37;;;8.30;99.90;;;;;;5019451;28;20420;-79
2021/10/18 06:55:01;;;;;;;9.00;6.77;;;8.40;99.90;;;;;;5019720;28;20496;-79
2021/10/18 06:57:27;;;;;;;10.93;7.20;;;8.60;99.90;;;;;;5018830;28;20536;-79
2021/10/18 06:59:52;;;;;;;9.10;6.87;;;8.40;99.90;;;;;;5016440;28;20479;-78
2021/10/18 07:02:19;;;;;;;9.00;6.77;;;8.40;99.90;;;;;;5020377;28;20451;-78
2021/10/18 07:04:44;;;;;;;7.37;6.77;;;8.50;99.90;;;;;;5022405;28;20189;-78
2021/10/18 07:07:11;;;;;;;11.57;6.27;;;8.50;99.90;;;;;;5019443;28;20467;-78
2021/10/18 07:09:37;;;;;;;6.73;5.83;;;8.60;99.90;;;;;;5037285;28;20236;-79
2021/10/18 07:12:03;;;;;;;8.97;7.37;;;8.70;99.90;;;;;;5020018;28;20436;-78
2021/10/18 07:14:30;;;;;;;8.60;6.90;;;8.80;99.90;;;;;;5020160;28;20185;-80
2021/10/18 07:16:56;;;;;;;10.93;7.73;;;8.70;99.90;;;;;;5024538;28;20452;-79
2021/10/18 07:19:22;;;;;;;8.90;6.90;;;8.60;99.90;;;;;;5032749;28;20456;-81
2021/10/18 07:21:48;;;;;;;11.27;8.47;;;8.80;99.90;;;;;;5023361;28;20259;-81
2021/10/18 07:24:16;;;;;;;8.70;7.47;;;8.90;99.90;;;;;;5017171;28;20193;-81
2021/10/18 07:26:42;;;;;;;7.57;6.37;;;8.90;99.90;;;;;;5014311;28;20209;-81
2021/10/18 07:29:08;;;;;;;9.60;7.13;;;8.50;99.90;;;;;;5017905;28;20446;-79
2021/10/18 07:31:37;;;;;;;9.80;8.30;;;8.50;99.90;;;;;;5021570;28;20451;-80
2021/10/18 07:34:05;;;;;;;8.33;6.87;;;8.30;99.90;;;;;;5012561;28;20499;-81
2021/10/18 07:36:33;;;;;;;9.07;6.77;;;7.90;99.90;;;;;;5017023;28;20193;-80
2021/10/18 07:39:07;;;;;;;8.50;6.60;;;7.80;99.90;;;;;;5015113;28;20435;-82
2021/10/18 07:41:33;;;;;;;7.97;7.13;;;7.70;99.90;;;;;;5015254;28;20538;-82
2021/10/18 07:43:59;;;;;;;8.97;7.13;;;7.60;99.90;;;;;;5031612;28;20414;-80
2021/10/18 07:46:25;;;;;;;12.57;7.73;;;7.80;99.90;;;;;;5015583;28;20456;-82
2021/10/18 07:48:51;;;;;;;7.53;6.53;;;8.10;99.90;;;;;;5014758;28;20440;-82
2021/10/18 07:51:38;;;;;;;7.03;6.00;;;8.30;99.90;;;;;;5014642;28;20446;-81
2021/10/18 07:54:05;;;;;;;6.27;5.67;;;8.50;99.90;;;;;;5010461;28;20199;-82
2021/10/18 07:56:32;;;;;;;9.43;6.70;;;8.50;99.90;;;;;;5007026;28;20894;-81
2021/10/18 07:58:58;;;;;;;12.30;10.60;;;8.70;99.90;;;;;;5012745;28;20439;-81
2021/10/18 08:01:24;;;;;;;8.10;7.30;;;8.90;99.90;;;;;;5020454;28;21040;-82
2021/10/18 08:03:50;;;;;;;13.07;7.27;;;9.00;99.90;;;;;;5014894;28;20471;-81
2021/10/18 08:06:16;;;;;;;11.33;8.60;;;9.10;99.90;;;;;;5018412;28;20557;-82
2021/10/18 08:08:45;;;;;;;10.93;7.00;;;9.00;99.90;;;;;;5013527;28;20190;-82
2021/10/18 08:11:11;;;;;;;7.17;6.47;;;8.70;99.90;;;;;;5019320;28;20192;-82
2021/10/18 08:13:38;;;;;;;7.73;6.87;;;8.40;99.90;;;;;;5010009;28;20509;-82
2021/10/18 08:16:05;;;;;;;11.90;7.20;;;8.40;99.90;;;;;;5019476;28;20517;-82
2021/10/18 08:18:31;;;;;;;7.57;6.77;;;8.50;99.90;;;;;;4975226;28;20434;-81
2021/10/18 08:20:57;;;;;;;7.60;6.43;;;8.50;99.90;;;;;;4957731;28;20528;-81
2021/10/18 08:23:24;;;;;;;7.80;7.00;;;8.50;99.90;;;;;;4952202;29;20195;-81
2021/10/18 08:25:51;;;;;;;11.70;7.17;;;8.70;99.90;;;;;;4935437;29;20446;-82
2021/10/18 08:28:17;;;;;;;10.30;7.10;;;9.00;99.90;;;;;;4962250;28;20505;-81
2021/10/18 08:30:43;;;;;;;8.10;7.27;;;8.90;99.90;;;;;;4937941;29;20940;-82
2021/10/18 08:33:09;;;;;;;8.73;7.03;;;8.80;99.90;;;;;;4952999;29;20234;-81
2021/10/18 08:35:34;;;;;;;10.07;8.27;;;8.70;99.90;;;;;;4936762;29;20203;-82
2021/10/18 08:41:04;;;;;;;11.17;8.30;;;9.10;99.90;;;;;;4931421;29;20428;-79
2021/10/18 08:46:19;;;;;;;7.83;7.10;;;9.00;99.90;;;;;;4922427;29;20455;-82
2021/10/18 08:48:50;;;;;;;15.97;8.17;;;8.80;99.90;;;;;;4966370;28;20679;-83
2021/10/18 08:51:18;;;;;;;8.90;7.70;;;8.80;99.90;;;;;;5020868;28;20446;-79
2021/10/18 08:53:44;;;;;;;11.60;7.67;;;9.00;99.90;;;;;;5019228;28;20527;-82
2021/10/18 08:56:10;;;;;;;10.17;8.80;;;9.20;99.90;;;;;;5022182;28;20480;-79
2021/10/18 08:58:39;;;;;;;11.43;8.70;;;9.30;99.90;;;;;;5021800;28;20507;-79
2021/10/18 09:01:05;;;;;;;16.43;10.53;;;9.20;99.90;;;;;;5029118;28;20935;-82
2021/10/18 09:03:34;;;;;;;12.63;9.37;;;9.30;99.90;;;;;;5028791;28;20438;-83
2021/10/18 09:06:14;;;;;;;10.03;8.97;;;9.50;99.90;;;;;;5027713;28;20476;-82
2021/10/18 09:08:50;;;;;;;8.60;7.50;;;9.40;99.90;;;;;;5028201;28;20444;-79
2021/10/18 09:11:20;;;;;;;13.77;7.90;;;9.40;99.90;;;;;;5019945;28;20434;-82
2021/10/18 09:13:57;;;;;;;11.90;8.60;;;9.60;99.90;;;;;;5016212;28;20473;-80
2021/10/18 09:16:36;;;;;;;17.07;10.23;;;9.80;99.90;;;;;;5018836;28;20526;-82
2021/10/18 09:19:06;;;;;;;14.27;10.87;;;10.00;99.90;;;;;;5016581;28;20424;-81
2021/10/18 09:21:35;;;;;;;12.23;9.97;;;10.10;99.90;;;;;;5012488;28;20460;-80
2021/10/18 09:24:02;;;;;;;13.37;9.40;;;10.00;99.90;;;;;;5011596;28;20455;-81
2021/10/18 09:26:31;;;;;;;12.00;10.33;;;10.00;99.90;;;;;;5016213;28;20995;-80
2021/10/18 09:29:04;;;;;;;14.00;10.17;;;10.20;99.90;;;;;;5020474;28;20463;-80
2021/10/18 09:31:30;;;;;;;13.47;10.67;;;10.40;99.90;;;;;;5015621;28;21229;-83
2021/10/18 09:34:06;;;;;;;12.40;11.10;;;10.50;99.90;;;;;;5015986;28;20504;-83
2021/10/18 09:36:33;;;;;;;14.77;10.93;;;10.50;99.90;;;;;;5016445;28;20243;-82
2021/10/18 09:39:15;;;;;;;16.20;12.23;;;10.60;99.90;;;;;;5014286;28;20911;-79
2021/10/18 09:41:44;;;;;;;14.23;10.30;;;10.60;99.90;;;;;;5021681;28;20768;-80
2021/10/18 09:44:22;;;;;;;16.67;11.13;;;10.70;99.90;;;;;;5010843;28;20528;-81
2021/10/18 09:47:18;;;;;;;19.43;11.97;;;10.70;99.90;;;;;;5013046;28;20893;-81
2021/10/18 10:53:31;;;;;;;33.00;20.27;;;11.30;99.90;;;;;;5033183;28;20438;-82
2021/10/18 10:56:15;;;;;;;31.70;19.67;;;11.50;99.90;;;;;;5014496;28;20439;-81
2021/10/18 10:58:50;;;;;;;31.97;18.67;;;11.50;99.90;;;;;;5013262;28;20428;-83
2021/10/18 11:01:53;;;;;;;33.13;21.43;;;11.40;99.90;;;;;;5000054;28;20454;-81
2021/10/18 11:04:41;;;;;;;28.97;21.30;;;11.60;99.90;;;;;;5012821;28;20434;-82
2021/10/18 11:07:21;;;;;;;38.20;21.57;;;11.60;99.90;;;;;;4999292;28;20945;-82
2021/10/18 11:09:54;;;;;;;31.37;20.47;;;11.50;99.90;;;;;;5017485;28;20432;-82
2021/10/18 11:12:28;;;;;;;31.00;19.63;;;11.50;99.90;;;;;;4991546;28;20428;-83
2021/10/18 11:15:02;;;;;;;28.30;20.20;;;11.40;99.90;;;;;;5010646;28;20985;-81
2021/10/18 11:17:32;;;;;;;32.40;20.97;;;11.50;99.90;;;;;;5007557;28;20439;-81
2021/10/18 11:20:08;;;;;;;31.03;19.00;;;11.60;99.90;;;;;;5029960;28;20428;-82
2021/10/18 11:22:39;;;;;;;29.70;20.00;;;11.50;99.90;;;;;;5011909;28;20851;-83
2021/10/18 11:25:13;;;;;;;35.20;20.97;;;11.40;99.90;;;;;;5013811;28;20427;-82
2021/10/18 11:27:41;;;;;;;34.67;21.47;;;11.50;99.90;;;;;;4997319;28;20559;-83
2021/10/18 11:30:10;;;;;;;33.17;19.87;;;11.20;99.90;;;;;;4998033;28;20440;-82
2021/10/18 11:32:37;;;;;;;28.10;18.07;;;11.40;99.90;;;;;;4993509;28;20478;-80
2021/10/18 11:35:15;;;;;;;34.80;19.07;;;11.60;99.90;;;;;;4995925;28;20433;-82
2021/10/18 11:38:13;;;;;;;31.50;18.93;;;11.70;99.90;;;;;;4990144;28;20549;-83
2021/10/18 11:40:43;;;;;;;32.73;19.77;;;11.90;99.90;;;;;;4998479;28;20539;-82
2021/10/18 11:43:12;;;;;;;33.33;21.00;;;11.80;99.90;;;;;;4994601;28;20545;-86
2021/10/18 11:45:42;;;;;;;33.33;20.17;;;11.60;99.90;;;;;;4998972;28;20445;-84
2021/10/18 11:48:17;;;;;;;36.80;20.90;;;11.70;99.90;;;;;;4992939;28;20449;-83
2021/10/18 11:50:45;;;;;;;33.57;17.03;;;11.90;99.90;;;;;;4980047;28;20535;-83
2021/10/18 11:53:22;;;;;;;30.17;19.63;;;11.70;99.90;;;;;;4998726;28;20528;-83
2021/10/18 11:55:51;;;;;;;29.33;19.00;;;12.10;99.90;;;;;;4998824;28;20571;-84
2021/10/18 11:58:20;;;;;;;32.27;20.43;;;12.00;99.90;;;;;;5002811;28;20804;-84
2021/10/18 12:00:47;;;;;;;24.47;17.40;;;11.60;99.90;;;;;;4997912;28;20473;-84
2021/10/18 12:03:16;;;;;;;29.50;17.80;;;11.70;99.90;;;;;;4983719;28;20440;-83
2021/10/18 12:05:48;;;;;;;27.10;18.83;;;11.70;99.90;;;;;;4998212;28;20500;-81
2021/10/18 12:08:16;;;;;;;38.40;21.90;;;11.60;99.90;;;;;;5000934;28;20448;-84
2021/10/18 12:10:44;;;;;;;36.30;21.60;;;11.50;99.90;;;;;;5018247;28;20440;-84
2021/10/18 12:13:21;;;;;;;25.50;17.77;;;11.60;99.90;;;;;;5015852;28;20512;-84
2021/10/18 12:15:59;;;;;;;28.80;17.97;;;12.00;99.90;;;;;;5021775;28;20474;-84
2021/10/18 12:18:44;;;;;;;26.23;17.17;;;12.00;99.90;;;;;;5010836;28;20471;-84
2021/10/18 12:21:22;;;;;;;27.90;17.57;;;11.70;99.90;;;;;;5013130;28;20554;-84
2021/10/18 12:23:54;;;;;;;24.37;15.87;;;11.60;99.90;;;;;;5010288;28;20444;-83
2021/10/18 12:26:48;;;;;;;33.07;21.50;;;11.50;99.90;;;;;;5002443;28;20455;-84
2021/10/18 12:29:18;;;;;;;34.13;19.43;;;11.70;99.90;;;;;;5005792;28;20467;-83
2021/10/18 12:31:46;;;;;;;28.37;18.17;;;11.70;99.90;;;;;;4998578;28;20426;-81
2021/10/18 12:34:25;;;;;;;30.70;18.97;;;11.60;99.90;;;;;;4998919;28;20786;-84
2021/10/18 12:37:20;;;;;;;28.37;18.60;;;11.50;99.90;;;;;;4997714;28;20496;-83
2021/10/18 12:40:02;;;;;;;23.47;17.17;;;11.70;99.90;;;;;;4993023;28;20473;-83
2021/10/18 12:42:49;;;;;;;26.93;17.30;;;12.00;99.90;;;;;;4994110;28;20444;-85
2021/10/18 12:45:17;;;;;;;24.57;16.30;;;12.20;99.90;;;;;;4959995;28;20477;-84
2021/10/18 12:47:54;;;;;;;28.33;18.20;;;12.10;99.90;;;;;;4963254;29;20470;-84
2021/10/18 12:50:24;;;;;;;29.17;18.87;;;12.20;99.90;;;;;;4973043;28;20431;-82
2021/10/18 12:52:57;;;;;;;28.27;18.57;;;12.00;99.90;;;;;;4972037;28;20434;-83
2021/10/18 12:55:43;;;;;;;24.20;15.63;;;12.40;99.90;;;;;;4972035;28;20511;-83
2021/10/18 12:58:18;;;;;;;29.33;17.73;;;12.60;99.90;;;;;;4930834;29;20484;-84
2021/10/18 13:00:44;;;;;;;21.37;14.93;;;12.60;99.90;;;;;;4916429;29;20466;-84
2021/10/18 13:03:19;;;;;;;26.33;17.00;;;12.70;99.90;;;;;;4923101;29;20539;-83
2021/10/18 13:05:48;;;;;;;28.53;16.90;;;13.00;99.90;;;;;;4920741;29;20440;-84
2021/10/18 13:08:17;;;;;;;25.70;17.57;;;12.70;99.90;;;;;;4918101;29;20448;-83
2021/10/18 13:10:45;;;;;;;23.83;16.67;;;12.60;99.90;;;;;;4919570;29;20428;-84
2021/10/18 13:13:14;;;;;;;29.10;19.30;;;12.40;99.90;;;;;;4920510;29;20470;-84
2021/10/18 13:16:00;;;;;;;25.37;17.33;;;12.80;99.90;;;;;;4904126;29;20799;-83
2021/10/18 13:18:26;;;;;;;24.33;19.03;;;12.80;99.90;;;;;;4921533;29;20428;-83
2021/10/18 13:20:58;;;;;;;32.63;19.20;;;12.80;99.90;;;;;;4918285;29;21147;-83
2021/10/18 13:23:28;;;;;;;25.67;18.53;;;13.30;99.90;;;;;;4902938;29;20196;-83
2021/10/18 13:25:57;;;;;;;28.13;16.90;;;12.90;99.90;;;;;;4898758;29;20489;-85
2021/10/18 13:28:26;;;;;;;21.50;16.70;;;13.20;99.90;;;;;;4929873;28;20481;-82
2021/10/18 13:30:52;;;;;;;23.87;16.60;;;13.40;99.90;;;;;;4974089;28;20442;-82
2021/10/18 13:33:25;;;;;;;22.70;15.00;;;13.40;99.90;;;;;;4973901;28;20479;-81
2021/10/18 13:35:51;;;;;;;22.97;16.07;;;14.00;99.90;;;;;;4992622;28;20506;-82
2021/10/18 13:38:16;;;;;;;21.30;17.27;;;15.20;99.90;;;;;;5025123;28;20501;-81
2021/10/18 13:40:43;;;;;;;21.70;16.50;;;15.90;99.90;;;;;;5009202;28;20180;-81
2021/10/18 13:43:10;;;;;;;24.13;18.83;;;15.30;99.90;;;;;;5026904;28;20200;-83
2021/10/18 13:45:38;;;;;;;21.50;17.80;;;15.60;99.90;;;;;;5033998;28;20805;-83
2021/10/18 13:48:04;;;;;;;20.60;16.00;;;16.50;99.90;;;;;;5014641;28;20809;-83
2021/10/18 13:50:31;;;;;;;25.43;17.40;;;17.00;99.90;;;;;;5013926;28;20424;-82
2021/10/18 13:52:57;;;;;;;25.83;16.77;;;17.00;99.90;;;;;;4998267;28;21139;-81
2021/10/18 13:55:25;;;;;;;22.40;17.10;;;17.60;99.90;;;;;;5010439;28;21102;-82
2021/10/18 13:57:51;;;;;;;18.47;16.20;;;18.20;99.90;;;;;;4996223;28;20864;-82
2021/10/18 14:00:18;;;;;;;22.77;17.70;;;17.30;99.90;;;;;;5014161;28;20456;-83
2021/10/18 14:02:45;;;;;;;26.73;19.03;;;16.70;99.90;;;;;;5014226;28;20542;-82